Time;durP1;ratioP1;P1;durP2;ratioP2;P2;SDS_P1;SDS_P2;PMS_P1;PMS_P2;Temp;Humidity;BMP_temperature;BMP_pressure;BME280_temperature;BME280_humidity;BME280_pressure;Samples;Min_cycle;Max_cycle;Signal;HPM_P1;HPM_P2
2023/10/15 00:00:41;;;;;;;;;0.33;0.33;;;;;;;;5017276;28;45528;-50
2023/10/15 00:03:07;;;;;;;;;0.67;0.67;;;;;;;;5014991;28;45327;-47
2023/10/15 00:05:32;;;;;;;;;0.00;0.00;;;;;;;;5017802;28;45351;-46
2023/10/15 00:07:57;;;;;;;;;1.00;1.00;;;;;;;;5010473;28;45472;-49
2023/10/15 00:10:26;;;;;;;;;1.00;1.00;;;;;;;;5021334;28;45399;-47
2023/10/15 00:12:55;;;;;;;;;0.67;0.67;;;;;;;;5003681;28;45646;-48
2023/10/15 00:15:23;;;;;;;;;1.00;1.00;;;;;;;;5021068;28;45297;-47
2023/10/15 00:17:50;;;;;;;;;0.67;0.67;;;;;;;;5021407;28;45456;-47
2023/10/15 00:20:16;;;;;;;;;1.67;0.67;;;;;;;;5015179;28;45289;-47
2023/10/15 00:22:42;;;;;;;;;0.33;0.33;;;;;;;;5023578;28;45229;-47
2023/10/15 00:25:12;;;;;;;;;1.67;1.33;;;;;;;;5018526;28;47328;-47
2023/10/15 00:27:37;;;;;;;;;3.67;0.67;;;;;;;;5005727;28;45896;-47
2023/10/15 00:30:05;;;;;;;;;0.33;0.33;;;;;;;;5027590;28;45245;-46
2023/10/15 00:32:31;;;;;;;;;2.33;1.33;;;;;;;;5014302;28;45584;-47
2023/10/15 00:34:56;;;;;;;;;1.00;1.00;;;;;;;;5027302;28;45515;-46
2023/10/15 00:37:22;;;;;;;;;0.67;0.67;;;;;;;;5016883;28;45650;-46
2023/10/15 00:39:47;;;;;;;;;1.67;1.67;;;;;;;;5024389;28;45327;-46
2023/10/15 00:42:13;;;;;;;;;1.33;1.00;;;;;;;;5024966;28;45498;-47
2023/10/15 00:44:38;;;;;;;;;0.67;0.67;;;;;;;;5015958;28;46099;-47
2023/10/15 00:47:03;;;;;;;;;0.00;0.00;;;;;;;;5016967;28;45313;-45
2023/10/15 00:49:29;;;;;;;;;0.00;0.00;;;;;;;;5007635;28;45415;-46
2023/10/15 00:51:55;;;;;;;;;1.00;1.00;;;;;;;;5022269;28;45466;-48
2023/10/15 00:54:21;;;;;;;;;0.33;0.33;;;;;;;;5020636;28;45505;-46
2023/10/15 00:56:48;;;;;;;;;0.67;0.67;;;;;;;;5020375;28;45406;-46
2023/10/15 00:59:18;;;;;;;;;0.67;0.67;;;;;;;;5012028;28;45499;-47
2023/10/15 01:01:54;;;;;;;;;1.00;1.00;;;;;;;;5001206;28;45622;-47
2023/10/15 01:04:24;;;;;;;;;3.00;0.00;;;;;;;;5001600;28;46276;-46
2023/10/15 01:06:50;;;;;;;;;0.00;0.00;;;;;;;;5019562;28;45407;-46
2023/10/15 01:09:19;;;;;;;;;0.00;0.00;;;;;;;;5018310;28;45270;-46
2023/10/15 01:11:58;;;;;;;;;1.00;1.00;;;;;;;;5007939;28;45507;-46
2023/10/15 01:14:31;;;;;;;;;1.00;1.00;;;;;;;;5009906;28;47011;-47
2023/10/15 01:16:56;;;;;;;;;1.33;1.33;;;;;;;;5016190;28;45701;-46
2023/10/15 01:19:31;;;;;;;;;1.00;1.00;;;;;;;;5013337;28;45284;-49
2023/10/15 01:22:01;;;;;;;;;2.00;2.00;;;;;;;;4991744;28;45826;-46
2023/10/15 01:24:33;;;;;;;;;2.33;2.33;;;;;;;;5019351;28;45426;-47
2023/10/15 01:27:09;;;;;;;;;4.00;1.33;;;;;;;;5019666;28;45420;-48
2023/10/15 01:29:55;;;;;;;;;1.00;1.00;;;;;;;;5009505;28;45449;-46
2023/10/15 01:32:21;;;;;;;;;6.00;2.33;;;;;;;;5016130;28;45369;-47
2023/10/15 01:34:48;;;;;;;;;0.67;0.67;;;;;;;;5000662;28;47965;-46
2023/10/15 01:39:47;;;;;;;;;1.67;0.67;;;;;;;;5019173;28;45853;-46
2023/10/15 01:42:31;;;;;;;;;3.00;3.00;;;;;;;;5018198;28;45668;-46
2023/10/15 01:45:13;;;;;;;;;3.00;2.67;;;;;;;;5019031;28;47228;-46
2023/10/15 01:50:16;;;;;;;;;1.00;1.00;;;;;;;;5007475;28;45424;-46
2023/10/15 01:52:42;;;;;;;;;1.33;1.33;;;;;;;;5019300;28;45856;-47
2023/10/15 01:55:07;;;;;;;;;2.00;2.00;;;;;;;;5011498;28;46153;-47
2023/10/15 01:57:36;;;;;;;;;1.67;1.67;;;;;;;;5014590;28;45795;-46
2023/10/15 02:00:12;;;;;;;;;1.67;1.67;;;;;;;;5018725;28;45474;-46
2023/10/15 02:02:37;;;;;;;;;0.67;0.67;;;;;;;;5011041;28;45241;-47
2023/10/15 02:05:02;;;;;;;;;1.00;1.00;;;;;;;;5015611;28;45572;-46
2023/10/15 02:07:30;;;;;;;;;4.00;1.00;;;;;;;;5015606;28;45538;-48
2023/10/15 02:09:55;;;;;;;;;2.00;1.00;;;;;;;;5019256;28;45276;-46
2023/10/15 02:12:21;;;;;;;;;1.00;1.00;;;;;;;;5019264;28;45197;-46
2023/10/15 02:14:47;;;;;;;;;1.00;1.00;;;;;;;;5003578;28;46409;-46
2023/10/15 02:17:13;;;;;;;;;1.00;1.00;;;;;;;;5012474;28;45222;-45
2023/10/15 02:19:42;;;;;;;;;1.00;1.00;;;;;;;;5006053;28;45369;-45
2023/10/15 02:22:13;;;;;;;;;3.00;3.00;;;;;;;;5015300;28;45419;-49
2023/10/15 02:24:48;;;;;;;;;2.00;1.00;;;;;;;;5011505;28;46314;-47
2023/10/15 02:27:27;;;;;;;;;0.67;0.67;;;;;;;;5013864;28;45550;-46
2023/10/15 02:29:52;;;;;;;;;1.33;1.33;;;;;;;;5011278;28;45402;-48
2023/10/15 02:32:21;;;;;;;;;2.67;2.00;;;;;;;;5010165;28;45407;-47
2023/10/15 02:34:53;;;;;;;;;1.00;1.00;;;;;;;;5011459;28;46766;-46
2023/10/15 02:37:19;;;;;;;;;3.33;2.00;;;;;;;;5018137;28;45394;-45
2023/10/15 02:39:50;;;;;;;;;2.00;2.00;;;;;;;;5017074;28;45240;-46
2023/10/15 02:42:19;;;;;;;;;2.00;2.00;;;;;;;;5015407;28;45533;-46
2023/10/15 02:44:44;;;;;;;;;1.00;1.00;;;;;;;;5012706;28;45650;-45
2023/10/15 02:47:19;;;;;;;;;3.33;2.67;;;;;;;;5017706;28;45293;-45
2023/10/15 02:49:52;;;;;;;;;5.00;2.00;;;;;;;;5018338;28;45464;-46
2023/10/15 02:52:19;;;;;;;;;2.00;2.00;;;;;;;;5013754;28;45487;-47
2023/10/15 02:54:45;;;;;;;;;3.00;1.00;;;;;;;;5018964;28;45652;-46
2023/10/15 02:57:15;;;;;;;;;2.33;2.00;;;;;;;;5018429;28;45436;-46
2023/10/15 02:59:50;;;;;;;;;1.00;1.00;;;;;;;;5018643;28;45488;-46
2023/10/15 03:02:17;;;;;;;;;1.00;1.00;;;;;;;;5005588;28;45242;-45
2023/10/15 03:04:49;;;;;;;;;0.67;0.67;;;;;;;;4998396;28;46143;-47
2023/10/15 03:07:25;;;;;;;;;2.33;2.00;;;;;;;;5015045;28;46348;-46
2023/10/15 03:09:51;;;;;;;;;3.00;3.00;;;;;;;;5005427;28;45485;-44
2023/10/15 03:12:18;;;;;;;;;2.00;1.00;;;;;;;;4999867;28;45400;-45
2023/10/15 03:14:43;;;;;;;;;1.00;1.00;;;;;;;;5018511;28;45387;-46
2023/10/15 03:17:13;;;;;;;;;0.33;0.33;;;;;;;;5000303;28;45338;-47
2023/10/15 03:19:39;;;;;;;;;2.00;1.67;;;;;;;;5019068;28;45431;-47
2023/10/15 03:22:08;;;;;;;;;2.00;2.00;;;;;;;;5017915;28;45328;-47
2023/10/15 03:24:34;;;;;;;;;2.67;2.33;;;;;;;;5018810;28;45281;-48
2023/10/15 03:26:59;;;;;;;;;1.67;1.67;;;;;;;;5010617;28;45420;-46
2023/10/15 03:29:25;;;;;;;;;1.00;1.00;;;;;;;;4995226;28;45418;-46
2023/10/15 03:31:54;;;;;;;;;2.33;2.33;;;;;;;;5017822;28;45313;-46
2023/10/15 03:34:25;;;;;;;;;1.00;1.00;;;;;;;;5018035;28;45852;-46
2023/10/15 03:36:52;;;;;;;;;2.67;2.00;;;;;;;;5017697;28;45345;-48
2023/10/15 03:39:53;;;;;;;;;1.00;1.00;;;;;;;;5017824;28;45318;-46
2023/10/15 03:44:44;;;;;;;;;2.00;2.00;;;;;;;;5000613;28;45356;-46
2023/10/15 03:47:10;;;;;;;;;3.00;1.00;;;;;;;;5017256;28;45313;-45
2023/10/15 03:49:36;;;;;;;;;5.00;2.00;;;;;;;;5013216;28;45376;-46
2023/10/15 03:52:07;;;;;;;;;1.67;1.67;;;;;;;;5017898;28;45455;-46
2023/10/15 03:54:33;;;;;;;;;2.67;2.67;;;;;;;;5017855;28;45459;-46
2023/10/15 03:57:00;;;;;;;;;3.00;2.33;;;;;;;;5017715;28;45229;-46
2023/10/15 03:59:26;;;;;;;;;1.33;0.67;;;;;;;;5005420;28;45514;-45
2023/10/15 04:01:52;;;;;;;;;2.00;1.33;;;;;;;;5018099;28;45316;-46
2023/10/15 04:04:17;;;;;;;;;1.33;1.00;;;;;;;;5017328;28;45372;-46
2023/10/15 04:06:45;;;;;;;;;2.00;2.00;;;;;;;;5017030;28;45728;-47
2023/10/15 04:09:13;;;;;;;;;2.00;2.00;;;;;;;;5017638;28;45260;-46
2023/10/15 04:11:47;;;;;;;;;3.00;1.67;;;;;;;;5021144;28;45511;-46
2023/10/15 04:14:14;;;;;;;;;2.33;2.00;;;;;;;;5020718;28;45632;-45
2023/10/15 04:16:43;;;;;;;;;3.00;3.00;;;;;;;;5002953;28;45174;-47
2023/10/15 04:19:08;;;;;;;;;2.00;2.00;;;;;;;;5021014;28;45242;-46
2023/10/15 04:21:38;;;;;;;;;2.67;2.00;;;;;;;;4990678;28;45563;-45
2023/10/15 04:24:04;;;;;;;;;1.00;1.00;;;;;;;;5001204;28;47287;-46
2023/10/15 04:26:30;;;;;;;;;1.00;1.00;;;;;;;;5020991;28;45373;-46
2023/10/15 04:28:55;;;;;;;;;3.00;3.00;;;;;;;;5020495;28;45266;-47
2023/10/15 04:31:23;;;;;;;;;2.33;2.00;;;;;;;;5002643;28;45444;-48
2023/10/15 04:33:52;;;;;;;;;3.00;1.67;;;;;;;;5013496;28;46179;-46
2023/10/15 04:36:18;;;;;;;;;4.00;2.00;;;;;;;;5012049;28;45527;-46
2023/10/15 04:38:43;;;;;;;;;3.00;1.67;;;;;;;;4999538;28;45586;-48
2023/10/15 04:41:10;;;;;;;;;2.00;2.00;;;;;;;;5020649;28;45669;-46
2023/10/15 04:43:45;;;;;;;;;3.00;3.00;;;;;;;;5020302;28;45390;-45
2023/10/15 04:46:17;;;;;;;;;2.67;2.00;;;;;;;;5020501;28;45365;-48
2023/10/15 04:48:45;;;;;;;;;3.00;2.00;;;;;;;;5020251;28;45540;-46
2023/10/15 04:51:13;;;;;;;;;2.00;2.00;;;;;;;;5019865;28;45353;-46
2023/10/15 04:53:45;;;;;;;;;2.00;2.00;;;;;;;;5003133;28;47332;-46
2023/10/15 04:56:13;;;;;;;;;4.00;2.33;;;;;;;;5001943;28;45325;-46
2023/10/15 04:58:38;;;;;;;;;2.33;2.00;;;;;;;;5020626;28;45685;-46
2023/10/15 05:01:04;;;;;;;;;2.33;2.33;;;;;;;;5020295;28;45449;-46
2023/10/15 05:03:31;;;;;;;;;4.00;4.00;;;;;;;;5021558;28;46318;-45
2023/10/15 05:06:00;;;;;;;;;4.00;2.00;;;;;;;;5021536;28;45286;-46
2023/10/15 05:08:26;;;;;;;;;2.33;2.33;;;;;;;;5019735;28;45289;-47
2023/10/15 05:10:51;;;;;;;;;2.33;2.33;;;;;;;;5020182;28;45344;-45
2023/10/15 05:13:17;;;;;;;;;2.67;2.67;;;;;;;;5017893;28;45589;-47
2023/10/15 05:15:46;;;;;;;;;3.67;2.00;;;;;;;;5020162;28;45498;-47
2023/10/15 05:18:11;;;;;;;;;3.33;3.33;;;;;;;;5018542;28;46008;-46
2023/10/15 05:20:37;;;;;;;;;4.00;3.00;;;;;;;;5020469;28;45321;-46
2023/10/15 05:23:02;;;;;;;;;4.00;2.33;;;;;;;;5017743;28;45457;-47
2023/10/15 05:25:28;;;;;;;;;2.33;2.33;;;;;;;;5019515;28;45379;-48
2023/10/15 05:27:53;;;;;;;;;2.67;2.67;;;;;;;;5019625;28;45593;-47
2023/10/15 05:30:19;;;;;;;;;2.00;2.00;;;;;;;;5018373;28;45636;-47
2023/10/15 05:32:44;;;;;;;;;2.00;2.00;;;;;;;;5019916;28;46628;-47
2023/10/15 05:35:10;;;;;;;;;2.67;2.67;;;;;;;;5018874;28;45467;-47
2023/10/15 05:37:41;;;;;;;;;3.67;2.00;;;;;;;;5019028;28;45496;-47
2023/10/15 05:40:07;;;;;;;;;5.00;4.00;;;;;;;;5019323;28;45358;-46
2023/10/15 05:42:33;;;;;;;;;2.33;2.33;;;;;;;;5019550;28;45305;-47
2023/10/15 05:44:58;;;;;;;;;6.67;3.00;;;;;;;;5019232;28;45340;-47
2023/10/15 05:47:23;;;;;;;;;6.00;3.00;;;;;;;;5020352;28;45239;-46
2023/10/15 05:49:48;;;;;;;;;1.67;1.67;;;;;;;;5017736;28;45272;-49
2023/10/15 05:52:14;;;;;;;;;2.00;2.00;;;;;;;;4993534;28;47047;-47
2023/10/15 05:54:39;;;;;;;;;3.67;3.00;;;;;;;;5019766;28;45572;-47
2023/10/15 05:57:06;;;;;;;;;3.00;3.00;;;;;;;;5019902;28;45413;-48
2023/10/15 05:59:31;;;;;;;;;4.33;3.00;;;;;;;;5019200;28;45396;-47
2023/10/15 06:01:57;;;;;;;;;4.33;3.00;;;;;;;;5018877;28;45229;-47
2023/10/15 06:04:22;;;;;;;;;4.67;2.67;;;;;;;;5024376;28;45270;-48
2023/10/15 06:06:48;;;;;;;;;4.00;2.00;;;;;;;;5008521;28;45135;-46
2023/10/15 06:09:14;;;;;;;;;2.33;2.33;;;;;;;;5018794;28;45557;-47
2023/10/15 06:11:39;;;;;;;;;4.00;2.00;;;;;;;;5018150;28;45493;-47
2023/10/15 06:14:05;;;;;;;;;2.67;2.67;;;;;;;;5018917;28;45403;-48
2023/10/15 06:16:30;;;;;;;;;2.67;2.00;;;;;;;;5019215;28;45332;-46
2023/10/15 06:18:57;;;;;;;;;4.67;2.67;;;;;;;;5012690;28;45562;-46
2023/10/15 06:21:22;;;;;;;;;4.00;4.00;;;;;;;;5018053;28;45499;-47
2023/10/15 06:23:47;;;;;;;;;2.00;2.00;;;;;;;;5018464;28;45396;-46
2023/10/15 06:26:13;;;;;;;;;1.67;1.67;;;;;;;;5001577;28;45426;-48
2023/10/15 06:28:38;;;;;;;;;2.67;2.67;;;;;;;;5019300;28;45487;-46
2023/10/15 06:31:04;;;;;;;;;2.00;2.00;;;;;;;;4996605;28;46351;-46
2023/10/15 06:33:30;;;;;;;;;2.67;2.00;;;;;;;;5018913;28;45238;-48
2023/10/15 06:35:55;;;;;;;;;3.67;2.33;;;;;;;;5017098;28;45508;-47
2023/10/15 06:38:20;;;;;;;;;2.67;2.67;;;;;;;;5009306;28;45444;-46
2023/10/15 06:40:45;;;;;;;;;3.00;3.00;;;;;;;;5006712;28;46222;-47
2023/10/15 06:43:11;;;;;;;;;2.00;2.00;;;;;;;;5014657;28;45381;-47
2023/10/15 06:45:37;;;;;;;;;4.67;4.00;;;;;;;;5010143;28;45489;-46
2023/10/15 06:48:02;;;;;;;;;4.67;4.00;;;;;;;;5017696;28;45254;-47
2023/10/15 06:50:27;;;;;;;;;2.33;2.33;;;;;;;;5004401;28;49171;-46
2023/10/15 06:52:53;;;;;;;;;4.33;3.67;;;;;;;;5013061;28;45226;-47
2023/10/15 06:55:21;;;;;;;;;3.00;3.00;;;;;;;;5008269;28;45418;-47
2023/10/15 06:57:46;;;;;;;;;3.67;3.33;;;;;;;;5016225;28;45348;-47
2023/10/15 07:00:21;;;;;;;;;5.00;5.00;;;;;;;;5008611;28;46388;-47
2023/10/15 07:02:46;;;;;;;;;6.00;5.67;;;;;;;;4995101;28;45724;-48
2023/10/15 07:05:12;;;;;;;;;6.00;4.00;;;;;;;;4997885;28;46404;-46
2023/10/15 07:07:38;;;;;;;;;3.00;3.00;;;;;;;;5018591;28;45509;-46
2023/10/15 07:10:06;;;;;;;;;3.67;3.67;;;;;;;;5015890;28;46375;-50
2023/10/15 07:12:32;;;;;;;;;4.00;4.00;;;;;;;;5002396;28;45202;-44
2023/10/15 07:14:57;;;;;;;;;4.00;4.00;;;;;;;;4999158;28;45134;-45
2023/10/15 07:17:22;;;;;;;;;5.67;4.00;;;;;;;;4999170;28;45911;-43
2023/10/15 07:19:47;;;;;;;;;6.00;5.00;;;;;;;;5013965;28;46293;-43
2023/10/15 07:22:13;;;;;;;;;6.33;4.67;;;;;;;;5010801;28;45391;-43
2023/10/15 07:24:38;;;;;;;;;6.00;5.00;;;;;;;;5016475;28;45470;-43
2023/10/15 07:27:04;;;;;;;;;6.33;5.67;;;;;;;;5015869;28;45221;-44
2023/10/15 07:29:29;;;;;;;;;4.33;4.33;;;;;;;;5009368;28;46110;-43
2023/10/15 07:31:55;;;;;;;;;6.00;5.00;;;;;;;;4995213;28;46170;-44
2023/10/15 07:34:22;;;;;;;;;6.00;3.67;;;;;;;;4997814;28;45718;-45
2023/10/15 07:36:50;;;;;;;;;5.00;4.00;;;;;;;;4979906;28;45616;-44
2023/10/15 07:39:17;;;;;;;;;5.67;5.67;;;;;;;;5005063;28;46254;-45
2023/10/15 07:41:42;;;;;;;;;6.00;4.00;;;;;;;;5016354;28;45424;-46
2023/10/15 07:44:08;;;;;;;;;5.00;5.00;;;;;;;;5010739;28;45476;-45
2023/10/15 07:46:34;;;;;;;;;4.67;4.67;;;;;;;;5009753;28;45402;-44
2023/10/15 07:48:59;;;;;;;;;4.33;4.33;;;;;;;;5017304;28;45557;-45
2023/10/15 07:51:26;;;;;;;;;4.33;4.33;;;;;;;;5020131;28;45493;-44
2023/10/15 07:53:52;;;;;;;;;4.67;4.67;;;;;;;;4999752;28;45293;-44
2023/10/15 07:56:17;;;;;;;;;5.67;5.67;;;;;;;;5016072;28;45631;-45
2023/10/15 07:58:42;;;;;;;;;6.33;6.33;;;;;;;;5013566;28;45683;-44
2023/10/15 08:01:08;;;;;;;;;5.33;5.33;;;;;;;;5010820;28;45274;-44
2023/10/15 08:03:33;;;;;;;;;7.00;6.00;;;;;;;;5017207;28;45653;-44
2023/10/15 08:06:01;;;;;;;;;5.00;4.00;;;;;;;;5011348;28;45567;-44
2023/10/15 08:08:27;;;;;;;;;5.33;5.33;;;;;;;;5016065;28;45419;-44
2023/10/15 08:10:52;;;;;;;;;6.33;5.00;;;;;;;;5012296;28;45798;-45
2023/10/15 08:13:18;;;;;;;;;5.33;5.33;;;;;;;;5022958;28;45461;-46
2023/10/15 08:15:43;;;;;;;;;5.00;5.00;;;;;;;;5020298;28;45528;-45
2023/10/15 08:18:08;;;;;;;;;6.00;5.67;;;;;;;;5013501;28;45594;-44
2023/10/15 08:20:34;;;;;;;;;5.67;4.00;;;;;;;;5009587;28;45601;-45
2023/10/15 08:23:00;;;;;;;;;3.33;3.33;;;;;;;;5001570;28;46211;-44
2023/10/15 08:25:25;;;;;;;;;4.67;4.67;;;;;;;;5012742;28;47193;-44
2023/10/15 08:27:51;;;;;;;;;4.33;4.00;;;;;;;;5019467;28;47096;-45
2023/10/15 08:30:17;;;;;;;;;4.33;3.00;;;;;;;;5013369;28;45478;-46
2023/10/15 08:32:46;;;;;;;;;5.67;4.00;;;;;;;;5008083;28;45320;-44
2023/10/15 08:35:13;;;;;;;;;4.33;3.67;;;;;;;;5008944;28;45768;-45
2023/10/15 08:37:39;;;;;;;;;3.33;3.33;;;;;;;;5018683;28;47048;-46
2023/10/15 08:40:04;;;;;;;;;4.33;3.00;;;;;;;;5017600;28;45797;-45
2023/10/15 08:42:32;;;;;;;;;5.00;3.00;;;;;;;;5029263;28;45467;-45
2023/10/15 08:44:59;;;;;;;;;5.00;3.33;;;;;;;;5014660;28;45548;-44
2023/10/15 08:47:25;;;;;;;;;0.67;0.67;;;;;;;;5016853;28;46710;-44
2023/10/15 08:49:52;;;;;;;;;1.00;1.00;;;;;;;;5014229;28;45584;-44
2023/10/15 08:52:17;;;;;;;;;0.00;0.00;;;;;;;;5015232;28;45394;-44
2023/10/15 08:54:43;;;;;;;;;1.00;1.00;;;;;;;;5019165;28;45588;-45
2023/10/15 08:57:09;;;;;;;;;0.00;0.00;;;;;;;;5017726;28;45446;-45
2023/10/15 08:59:38;;;;;;;;;0.00;0.00;;;;;;;;5018259;28;45838;-45
2023/10/15 09:02:05;;;;;;;;;1.00;1.00;;;;;;;;5016294;28;45531;-44
2023/10/15 09:04:31;;;;;;;;;0.00;0.00;;;;;;;;5013435;28;45411;-44
2023/10/15 09:07:01;;;;;;;;;2.00;0.67;;;;;;;;5018508;28;45662;-45
2023/10/15 09:09:26;;;;;;;;;1.00;1.00;;;;;;;;5008861;28;45595;-44
2023/10/15 09:11:54;;;;;;;;;0.00;0.00;;;;;;;;5012218;28;45847;-45
2023/10/15 09:14:35;;;;;;;;;1.00;1.00;;;;;;;;5017514;28;45408;-46
2023/10/15 09:17:00;;;;;;;;;0.00;0.00;;;;;;;;5018440;28;45526;-46
2023/10/15 09:19:26;;;;;;;;;0.00;0.00;;;;;;;;5017390;28;45352;-47
2023/10/15 09:21:52;;;;;;;;;0.33;0.33;;;;;;;;5020864;28;45772;-44
2023/10/15 09:24:20;;;;;;;;;0.00;0.00;;;;;;;;5020773;28;45453;-44
2023/10/15 09:26:45;;;;;;;;;0.00;0.00;;;;;;;;5008936;28;46300;-45
2023/10/15 09:29:16;;;;;;;;;0.00;0.00;;;;;;;;5006640;28;45237;-45
2023/10/15 09:31:42;;;;;;;;;0.00;0.00;;;;;;;;5014040;28;45485;-46
2023/10/15 09:34:11;;;;;;;;;0.00;0.00;;;;;;;;5017711;28;45400;-47
2023/10/15 09:36:37;;;;;;;;;0.00;0.00;;;;;;;;4988792;28;46866;-45
2023/10/15 09:39:04;;;;;;;;;0.00;0.00;;;;;;;;5018958;28;45344;-46
2023/10/15 09:41:30;;;;;;;;;0.00;0.00;;;;;;;;5018023;28;45329;-45
2023/10/15 09:43:57;;;;;;;;;0.67;0.67;;;;;;;;5018284;28;45519;-45
2023/10/15 09:46:23;;;;;;;;;0.00;0.00;;;;;;;;5021117;28;46670;-46
2023/10/15 09:48:49;;;;;;;;;0.00;0.00;;;;;;;;5000925;28;45500;-49
2023/10/15 09:51:15;;;;;;;;;1.67;0.00;;;;;;;;5021977;28;45604;-49
2023/10/15 09:53:41;;;;;;;;;0.00;0.00;;;;;;;;5025642;28;45310;-47
2023/10/15 09:56:08;;;;;;;;;0.00;0.00;;;;;;;;5017476;28;47336;-49
2023/10/15 09:58:34;;;;;;;;;0.25;0.00;;;;;;;;5019385;28;45348;-48
2023/10/15 10:01:25;;;;;;;;;1.00;0.00;;;;;;;;5019411;28;45496;-47
2023/10/15 10:04:14;;;;;;;;;0.75;0.00;;;;;;;;5011741;28;45397;-48
2023/10/15 10:07:09;;;;;;;;;0.00;0.00;;;;;;;;4993456;28;45892;-48
2023/10/15 10:09:46;;;;;;;;;0.00;0.00;;;;;;;;4923764;28;45420;-47
2023/10/15 10:12:17;;;;;;;;;0.00;0.00;;;;;;;;5015964;28;45392;-47
2023/10/15 10:15:01;;;;;;;;;0.00;0.00;;;;;;;;5013669;28;45560;-47
2023/10/15 10:17:27;;;;;;;;;2.00;0.00;;;;;;;;5009371;28;45537;-48
2023/10/15 10:19:53;;;;;;;;;0.25;0.00;;;;;;;;5018257;28;45605;-49
2023/10/15 10:22:21;;;;;;;;;0.00;0.00;;;;;;;;5012057;28;45443;-47
2023/10/15 10:24:47;;;;;;;;;0.75;0.00;;;;;;;;5011589;28;45377;-44
2023/10/15 10:27:13;;;;;;;;;0.00;0.00;;;;;;;;5019283;28;47052;-48
2023/10/15 10:29:40;;;;;;;;;0.00;0.00;;;;;;;;5019666;28;45357;-47
2023/10/15 10:32:05;;;;;;;;;0.00;0.00;;;;;;;;5019907;28;45294;-46
2023/10/15 10:34:30;;;;;;;;;0.00;0.00;;;;;;;;5017902;28;45312;-47
2023/10/15 10:36:56;;;;;;;;;0.00;0.00;;;;;;;;5019763;28;46376;-47
2023/10/15 10:39:22;;;;;;;;;0.00;0.00;;;;;;;;5019298;28;45551;-47
2023/10/15 10:41:51;;;;;;;;;0.00;0.00;;;;;;;;5021117;28;45376;-46
2023/10/15 10:44:22;;;;;;;;;0.33;0.00;;;;;;;;5018934;28;45815;-49
2023/10/15 10:46:47;;;;;;;;;0.00;0.00;;;;;;;;5020421;28;45456;-47
2023/10/15 10:49:18;;;;;;;;;0.00;0.00;;;;;;;;5020121;28;45238;-50
2023/10/15 10:52:02;;;;;;;;;0.00;0.00;;;;;;;;5020850;28;45306;-47
2023/10/15 10:54:28;;;;;;;;;0.00;0.00;;;;;;;;5019360;28;45285;-48
2023/10/15 10:56:53;;;;;;;;;3.33;1.00;;;;;;;;5019006;28;46125;-50
2023/10/15 10:59:19;;;;;;;;;0.00;0.00;;;;;;;;5019765;28;45392;-47
2023/10/15 11:01:47;;;;;;;;;0.00;0.00;;;;;;;;5019075;28;45261;-49
2023/10/15 11:04:16;;;;;;;;;0.00;0.00;;;;;;;;5019310;28;45364;-48
2023/10/15 11:06:50;;;;;;;;;0.00;0.00;;;;;;;;5017389;28;46422;-49
2023/10/15 11:09:15;;;;;;;;;0.00;0.00;;;;;;;;5017810;28;45583;-47
2023/10/15 11:11:59;;;;;;;;;0.00;0.00;;;;;;;;5018533;28;45479;-49
2023/10/15 11:14:26;;;;;;;;;0.67;0.67;;;;;;;;5016750;28;45376;-47
2023/10/15 11:16:54;;;;;;;;;0.00;0.00;;;;;;;;5018482;28;46459;-48
2023/10/15 11:19:21;;;;;;;;;0.00;0.00;;;;;;;;4987019;28;45619;-48
2023/10/15 11:21:48;;;;;;;;;0.00;0.00;;;;;;;;5014136;28;45413;-49
2023/10/15 11:24:13;;;;;;;;;0.00;0.00;;;;;;;;5013308;28;45440;-48
2023/10/15 11:26:42;;;;;;;;;1.00;0.00;;;;;;;;5018449;28;46042;-48
2023/10/15 11:29:14;;;;;;;;;0.33;0.00;;;;;;;;5016515;28;45550;-50
2023/10/15 11:31:44;;;;;;;;;0.00;0.00;;;;;;;;5006576;28;45570;-49
2023/10/15 11:34:10;;;;;;;;;0.00;0.00;;;;;;;;5012150;28;45599;-48
2023/10/15 11:36:36;;;;;;;;;1.00;1.00;;;;;;;;5004056;28;46168;-47
2023/10/15 11:39:03;;;;;;;;;0.00;0.00;;;;;;;;5010598;28;45290;-51
2023/10/15 11:41:32;;;;;;;;;1.00;0.00;;;;;;;;5012112;28;45450;-49
2023/10/15 11:44:01;;;;;;;;;0.00;0.00;;;;;;;;5008212;28;45392;-50
2023/10/15 11:46:26;;;;;;;;;0.00;0.00;;;;;;;;4990730;28;45499;-51
2023/10/15 11:48:51;;;;;;;;;0.00;0.00;;;;;;;;5017293;28;45449;-50
2023/10/15 11:51:18;;;;;;;;;0.33;0.00;;;;;;;;5012741;28;45545;-50
2023/10/15 11:53:46;;;;;;;;;0.00;0.00;;;;;;;;5009032;28;45622;-50
2023/10/15 11:56:20;;;;;;;;;0.00;0.00;;;;;;;;5004403;28;45392;-49
2023/10/15 11:58:45;;;;;;;;;0.00;0.00;;;;;;;;5016672;28;45503;-49
2023/10/15 12:01:14;;;;;;;;;0.00;0.00;;;;;;;;5004977;28;45388;-51
2023/10/15 12:03:41;;;;;;;;;0.00;0.00;;;;;;;;5002378;28;45341;-51
2023/10/15 12:06:07;;;;;;;;;0.00;0.00;;;;;;;;5013172;28;46553;-51
2023/10/15 12:08:32;;;;;;;;;1.33;0.00;;;;;;;;5015024;28;45273;-50
2023/10/15 12:10:58;;;;;;;;;0.00;0.00;;;;;;;;5002316;28;45554;-50
2023/10/15 12:13:23;;;;;;;;;0.00;0.00;;;;;;;;5017041;28;45447;-50
2023/10/15 12:15:48;;;;;;;;;0.00;0.00;;;;;;;;5012143;28;46259;-48
2023/10/15 12:18:13;;;;;;;;;0.00;0.00;;;;;;;;4999640;28;45353;-48
2023/10/15 12:20:38;;;;;;;;;0.00;0.00;;;;;;;;5019140;28;45319;-49
2023/10/15 12:23:03;;;;;;;;;0.00;0.00;;;;;;;;5010774;28;45340;-48
2023/10/15 12:25:29;;;;;;;;;0.67;0.00;;;;;;;;5006644;28;46265;-48
2023/10/15 12:27:54;;;;;;;;;0.00;0.00;;;;;;;;4999591;28;45630;-48
2023/10/15 12:30:23;;;;;;;;;1.00;0.00;;;;;;;;5014108;28;45482;-49
2023/10/15 12:32:48;;;;;;;;;0.00;0.00;;;;;;;;5011275;28;45396;-50
2023/10/15 12:35:13;;;;;;;;;0.00;0.00;;;;;;;;5031134;28;46140;-49
2023/10/15 12:37:39;;;;;;;;;0.00;0.00;;;;;;;;4997920;28;45529;-50
2023/10/15 12:40:12;;;;;;;;;0.00;0.00;;;;;;;;5017495;28;45458;-48
2023/10/15 12:42:37;;;;;;;;;0.00;0.00;;;;;;;;5018611;28;45361;-48
2023/10/15 12:45:03;;;;;;;;;0.00;0.00;;;;;;;;5019476;28;45473;-48
2023/10/15 12:47:28;;;;;;;;;0.00;0.00;;;;;;;;5020421;28;45339;-49
2023/10/15 12:49:53;;;;;;;;;1.67;0.00;;;;;;;;5017914;28;45554;-50
2023/10/15 12:52:18;;;;;;;;;0.00;0.00;;;;;;;;5016495;28;45361;-49
2023/10/15 12:54:43;;;;;;;;;2.50;0.00;;;;;;;;5009163;28;45591;-49
2023/10/15 12:57:09;;;;;;;;;0.00;0.00;;;;;;;;5008512;28;45266;-47
2023/10/15 12:59:34;;;;;;;;;1.00;0.00;;;;;;;;5016874;28;45736;-49
2023/10/15 13:02:00;;;;;;;;;0.00;0.00;;;;;;;;5021913;28;45426;-47
2023/10/15 13:04:25;;;;;;;;;1.33;0.00;;;;;;;;5020084;28;45532;-47
2023/10/15 13:06:50;;;;;;;;;0.00;0.00;;;;;;;;5019972;28;45302;-47
2023/10/15 13:09:25;;;;;;;;;0.00;0.00;;;;;;;;5017905;28;45381;-47
2023/10/15 13:11:51;;;;;;;;;0.00;0.00;;;;;;;;5018426;28;45464;-48
2023/10/15 13:14:16;;;;;;;;;0.00;0.00;;;;;;;;5019042;28;46574;-48
2023/10/15 13:16:42;;;;;;;;;1.33;0.00;;;;;;;;5020232;28;46487;-51
2023/10/15 13:19:07;;;;;;;;;0.00;0.00;;;;;;;;5016374;28;45218;-54
2023/10/15 13:21:33;;;;;;;;;0.00;0.00;;;;;;;;4994279;28;45379;-49
2023/10/15 13:23:58;;;;;;;;;0.00;0.00;;;;;;;;5016043;28;45319;-48
2023/10/15 13:26:24;;;;;;;;;0.00;0.00;;;;;;;;5017200;28;45348;-49
2023/10/15 13:28:49;;;;;;;;;0.00;0.00;;;;;;;;5018681;28;45329;-51
2023/10/15 13:31:14;;;;;;;;;1.33;0.00;;;;;;;;5017229;28;45611;-49
2023/10/15 13:33:41;;;;;;;;;5.33;2.33;;;;;;;;5033662;28;45526;-49
2023/10/15 13:36:06;;;;;;;;;0.33;0.00;;;;;;;;5004489;28;45786;-49
2023/10/15 13:38:33;;;;;;;;;1.00;0.00;;;;;;;;5019973;28;45541;-48
2023/10/15 13:40:58;;;;;;;;;0.33;0.00;;;;;;;;5017341;28;45463;-48
2023/10/15 13:43:24;;;;;;;;;0.00;0.00;;;;;;;;5018235;28;46097;-50
2023/10/15 13:45:49;;;;;;;;;0.00;0.00;;;;;;;;5015868;28;45445;-48
2023/10/15 13:48:14;;;;;;;;;0.00;0.00;;;;;;;;5019838;28;45270;-49
2023/10/15 13:50:39;;;;;;;;;0.00;0.00;;;;;;;;5020407;28;45407;-48
2023/10/15 13:53:05;;;;;;;;;0.00;0.00;;;;;;;;5019871;28;46078;-50
2023/10/15 13:55:30;;;;;;;;;0.00;0.00;;;;;;;;5002168;28;45442;-48
2023/10/15 13:57:55;;;;;;;;;0.00;0.00;;;;;;;;5002756;28;45266;-49
2023/10/15 14:00:21;;;;;;;;;0.00;0.00;;;;;;;;5006872;28;45304;-49
2023/10/15 14:02:47;;;;;;;;;0.00;0.00;;;;;;;;5012812;28;45261;-48
2023/10/15 14:05:15;;;;;;;;;0.00;0.00;;;;;;;;5007450;28;45361;-51
2023/10/15 14:07:40;;;;;;;;;0.00;0.00;;;;;;;;5001649;28;45447;-52
2023/10/15 14:10:06;;;;;;;;;1.00;0.00;;;;;;;;5013750;28;45554;-48
2023/10/15 14:12:31;;;;;;;;;0.00;0.00;;;;;;;;5016028;28;46418;-48
2023/10/15 14:14:57;;;;;;;;;0.00;0.00;;;;;;;;5018215;28;45498;-48
2023/10/15 14:17:22;;;;;;;;;1.00;0.00;;;;;;;;5008655;28;45239;-47
2023/10/15 14:19:50;;;;;;;;;0.00;0.00;;;;;;;;5012021;28;45690;-49
2023/10/15 14:22:16;;;;;;;;;0.00;0.00;;;;;;;;5016757;28;46185;-48
2023/10/15 14:24:46;;;;;;;;;0.00;0.00;;;;;;;;5012101;28;45230;-48
2023/10/15 14:27:11;;;;;;;;;0.00;0.00;;;;;;;;5018537;28;46004;-47
2023/10/15 14:29:36;;;;;;;;;0.00;0.00;;;;;;;;5017312;28;45757;-48
2023/10/15 14:32:02;;;;;;;;;0.00;0.00;;;;;;;;5016726;28;46337;-48
2023/10/15 14:34:33;;;;;;;;;0.00;0.00;;;;;;;;5007184;28;45458;-51
2023/10/15 14:37:00;;;;;;;;;0.67;0.67;;;;;;;;5018671;28;45539;-47
2023/10/15 14:39:25;;;;;;;;;1.00;0.00;;;;;;;;5017398;28;46316;-48
2023/10/15 14:41:50;;;;;;;;;0.00;0.00;;;;;;;;5010037;28;46648;-50
2023/10/15 14:44:16;;;;;;;;;0.00;0.00;;;;;;;;4982230;28;45485;-48
2023/10/15 14:46:41;;;;;;;;;0.00;0.00;;;;;;;;5009931;28;45375;-49
2023/10/15 14:49:06;;;;;;;;;0.00;0.00;;;;;;;;4997318;28;45616;-48
2023/10/15 14:51:31;;;;;;;;;0.00;0.00;;;;;;;;4990345;28;46348;-51